Time;durP1;ratioP1;P1;durP2;ratioP2;P2;SDS_P1;SDS_P2;PMS_P1;PMS_P2;Temp;Humidity;BMP_temperature;BMP_pressure;BME280_temperature;BME280_humidity;BME280_pressure;Samples;Min_cycle;Max_cycle;Signal;HPM_P1;HPM_P2
2022/04/05 00:00:41;;;;;;;6.75;6.10;;;5.20;99.90;;;;;;7379136;19;20340;-66
2022/04/05 00:03:06;;;;;;;6.57;5.97;;;5.30;99.90;;;;;;7380662;19;20435;-65
2022/04/05 00:05:32;;;;;;;6.55;5.95;;;5.30;99.90;;;;;;7383966;19;20368;-65
2022/04/05 00:07:58;;;;;;;6.10;5.60;;;5.30;99.90;;;;;;7382380;19;20676;-66
2022/04/05 00:10:24;;;;;;;6.37;5.77;;;5.40;99.90;;;;;;7372850;19;20333;-66
2022/04/05 00:12:49;;;;;;;5.50;5.00;;;5.40;99.90;;;;;;7367164;19;20301;-65
2022/04/05 00:15:15;;;;;;;6.20;5.60;;;5.40;99.90;;;;;;7384320;19;20375;-66
2022/04/05 00:17:41;;;;;;;5.80;5.30;;;5.40;99.90;;;;;;7385681;19;20372;-66
2022/04/05 00:20:07;;;;;;;6.50;5.90;;;5.30;99.90;;;;;;7378912;19;20420;-66
2022/04/05 00:22:33;;;;;;;6.22;5.72;;;5.20;99.90;;;;;;7381655;19;20304;-65
2022/04/05 00:24:59;;;;;;;6.60;6.00;;;5.20;99.90;;;;;;7381147;19;20329;-66
2022/04/05 00:27:25;;;;;;;6.32;5.72;;;5.20;99.90;;;;;;7382266;19;20329;-65
2022/04/05 00:29:50;;;;;;;6.00;5.50;;;5.30;99.90;;;;;;7379576;19;20345;-66
2022/04/05 00:32:16;;;;;;;5.90;5.40;;;5.20;99.90;;;;;;7381908;19;20301;-66
2022/04/05 00:34:41;;;;;;;6.20;5.70;;;5.20;99.90;;;;;;7383743;19;20348;-66
2022/04/05 00:37:07;;;;;;;6.00;5.50;;;5.20;99.90;;;;;;7376589;19;20329;-66
2022/04/05 00:39:33;;;;;;;5.93;5.43;;;5.20;99.90;;;;;;7382686;19;20387;-65
2022/04/05 00:41:59;;;;;;;5.78;5.28;;;5.20;99.90;;;;;;7380047;19;20325;-66
2022/04/05 00:44:25;;;;;;;5.70;5.20;;;5.20;99.90;;;;;;7379298;19;20352;-66
2022/04/05 00:46:51;;;;;;;6.20;5.70;;;5.20;99.90;;;;;;7381820;19;21041;-65
2022/04/05 00:49:23;;;;;;;5.85;5.35;;;5.10;99.90;;;;;;7379651;19;20428;-67
2022/04/05 00:51:49;;;;;;;6.10;5.50;;;5.10;99.90;;;;;;7379394;19;20337;-64
2022/04/05 00:54:15;;;;;;;5.77;5.17;;;5.10;99.90;;;;;;7380599;19;20333;-65
2022/04/05 00:56:40;;;;;;;6.18;5.63;;;5.20;99.90;;;;;;7381133;19;20335;-65
2022/04/05 00:59:07;;;;;;;5.60;5.10;;;5.20;99.90;;;;;;7379294;19;20372;-64
2022/04/05 01:01:32;;;;;;;5.65;5.15;;;5.30;99.90;;;;;;7376749;19;20320;-66
2022/04/05 01:03:58;;;;;;;5.77;5.27;;;5.30;99.90;;;;;;7379905;19;20345;-66
2022/04/05 01:06:26;;;;;;;5.80;5.30;;;5.30;99.90;;;;;;7381473;19;20305;-65
2022/04/05 01:08:52;;;;;;;5.20;4.70;;;5.40;99.90;;;;;;7378576;19;20345;-66
2022/04/05 01:11:17;;;;;;;5.00;4.60;;;5.40;99.90;;;;;;7380638;19;20827;-66
2022/04/05 01:13:43;;;;;;;5.30;4.90;;;5.50;99.90;;;;;;7382006;19;20328;-66
2022/04/05 01:16:10;;;;;;;7.60;5.13;;;5.50;99.90;;;;;;7378469;19;20376;-66
2022/04/05 01:18:36;;;;;;;4.80;4.40;;;5.60;99.90;;;;;;7381626;19;20324;-65
2022/04/05 01:21:02;;;;;;;5.43;5.00;;;5.60;99.90;;;;;;7376818;19;20345;-64
2022/04/05 01:23:27;;;;;;;4.90;4.50;;;5.60;99.90;;;;;;7379745;19;20849;-65
2022/04/05 01:25:53;;;;;;;4.65;4.25;;;5.60;99.90;;;;;;7380528;19;20323;-65
2022/04/05 01:28:22;;;;;;;4.80;4.40;;;5.60;99.90;;;;;;7381199;19;20329;-66
2022/04/05 01:30:48;;;;;;;5.72;4.80;;;5.60;99.90;;;;;;7374189;19;20337;-65
2022/04/05 01:33:13;;;;;;;4.95;4.55;;;5.70;99.90;;;;;;7381316;19;20431;-66
2022/04/05 01:35:40;;;;;;;4.90;4.50;;;5.70;99.90;;;;;;7379847;19;20333;-65
2022/04/05 01:38:07;;;;;;;5.13;4.63;;;5.70;99.90;;;;;;7378644;19;20353;-66
2022/04/05 01:40:32;;;;;;;5.00;4.60;;;5.70;99.90;;;;;;7378395;19;20834;-65
2022/04/05 01:42:58;;;;;;;4.70;4.30;;;5.70;99.90;;;;;;7380814;19;20345;-66
2022/04/05 01:45:24;;;;;;;4.90;4.50;;;5.70;99.90;;;;;;7380428;19;20309;-65
2022/04/05 01:47:50;;;;;;;4.90;4.50;;;5.70;99.90;;;;;;7381714;19;20343;-66
2022/04/05 01:50:15;;;;;;;4.93;4.53;;;5.70;99.90;;;;;;7375899;19;20672;-66
2022/04/05 01:52:41;;;;;;;5.18;4.75;;;5.70;99.90;;;;;;7379368;19;20865;-66
2022/04/05 01:55:07;;;;;;;5.00;4.60;;;5.60;99.90;;;;;;7380297;19;21135;-65
2022/04/05 01:57:33;;;;;;;5.40;5.00;;;5.50;99.90;;;;;;7378980;19;20305;-65
2022/04/05 02:00:03;;;;;;;5.75;5.25;;;5.50;99.90;;;;;;7376114;19;20663;-65
2022/04/05 02:02:37;;;;;;;5.40;5.00;;;5.40;99.90;;;;;;7380839;19;20334;-66
2022/04/05 02:05:03;;;;;;;5.38;4.97;;;5.40;99.90;;;;;;7378446;19;20827;-66
2022/04/05 02:07:29;;;;;;;5.33;4.87;;;5.30;99.90;;;;;;7380395;19;20317;-65
2022/04/05 02:09:54;;;;;;;6.00;5.50;;;5.30;99.90;;;;;;7374664;19;20406;-66
2022/04/05 02:12:20;;;;;;;6.10;5.50;;;5.40;99.90;;;;;;7377879;19;20457;-65
2022/04/05 02:14:59;;;;;;;6.28;5.78;;;5.30;99.90;;;;;;7379739;19;20332;-66
2022/04/05 02:17:36;;;;;;;5.80;5.30;;;5.30;99.90;;;;;;7379074;19;20326;-65
2022/04/05 02:20:06;;;;;;;6.50;5.90;;;5.30;99.90;;;;;;7373615;19;20329;-66
2022/04/05 02:22:32;;;;;;;6.32;5.82;;;5.30;99.90;;;;;;7375183;19;20875;-64
2022/04/05 02:25:03;;;;;;;6.38;5.88;;;5.30;99.90;;;;;;7378314;19;20339;-67
2022/04/05 02:27:33;;;;;;;6.50;6.00;;;5.20;99.90;;;;;;7378034;19;20672;-66
2022/04/05 02:29:59;;;;;;;6.70;6.10;;;5.20;99.90;;;;;;7375941;19;20861;-66
2022/04/05 02:32:25;;;;;;;6.50;5.90;;;5.30;99.90;;;;;;7374702;19;20345;-66
2022/04/05 02:34:52;;;;;;;6.15;5.65;;;5.20;99.90;;;;;;7376625;19;20440;-66
2022/04/05 02:37:17;;;;;;;6.13;5.63;;;5.20;99.90;;;;;;7380441;19;20380;-65
2022/04/05 02:39:46;;;;;;;6.43;5.93;;;5.20;99.90;;;;;;7376387;19;20348;-65
2022/04/05 02:42:12;;;;;;;6.28;5.78;;;5.20;99.90;;;;;;7378064;19;20324;-66
2022/04/05 02:44:40;;;;;;;6.15;5.55;;;5.20;99.90;;;;;;7379555;19;20380;-66
2022/04/05 02:47:07;;;;;;;6.70;6.10;;;5.20;99.90;;;;;;7375506;19;20425;-66
2022/04/05 02:49:36;;;;;;;6.70;6.10;;;5.20;99.90;;;;;;7370943;19;20357;-66
2022/04/05 02:52:05;;;;;;;6.53;6.00;;;5.10;99.90;;;;;;7378383;19;20341;-66
2022/04/05 02:54:41;;;;;;;6.15;5.68;;;5.10;99.90;;;;;;7262734;19;2004575;-66
2022/04/05 02:57:08;;;;;;;6.80;6.20;;;5.10;99.90;;;;;;7377429;19;20357;-66
2022/04/05 02:59:35;;;;;;;6.75;6.15;;;5.10;99.90;;;;;;7374402;19;20904;-67
2022/04/05 03:02:01;;;;;;;6.38;5.88;;;5.10;99.90;;;;;;7372067;19;20360;-65
2022/04/05 03:04:27;;;;;;;6.70;6.20;;;5.10;99.90;;;;;;7376760;19;20340;-66
2022/04/05 03:06:54;;;;;;;7.13;6.50;;;5.10;99.90;;;;;;7379205;19;20429;-67
2022/04/05 03:09:23;;;;;;;6.82;6.22;;;5.10;99.90;;;;;;7375274;19;20353;-66
2022/04/05 03:11:51;;;;;;;6.38;5.78;;;5.10;99.90;;;;;;7375435;19;20516;-66
2022/04/05 03:14:17;;;;;;;6.50;5.93;;;5.10;99.90;;;;;;7368008;19;20325;-66
2022/04/05 03:16:44;;;;;;;7.00;6.40;;;5.10;99.90;;;;;;7377841;19;20320;-66
2022/04/05 03:19:15;;;;;;;7.15;6.55;;;5.00;99.90;;;;;;7375375;19;20356;-66
2022/04/05 03:21:42;;;;;;;6.25;5.72;;;5.10;99.90;;;;;;7376155;19;20420;-65
2022/04/05 03:24:08;;;;;;;6.23;5.63;;;5.10;99.90;;;;;;7378452;19;20308;-67
2022/04/05 03:26:34;;;;;;;6.07;5.57;;;5.10;99.90;;;;;;7378795;19;20345;-66
2022/04/05 03:29:00;;;;;;;6.13;5.63;;;5.00;99.90;;;;;;7375309;19;20414;-66
2022/04/05 03:31:26;;;;;;;6.25;5.75;;;5.10;99.90;;;;;;7371549;19;20387;-66
2022/04/05 03:33:53;;;;;;;6.32;5.75;;;5.00;99.90;;;;;;7375194;19;20333;-66
2022/04/05 03:36:19;;;;;;;6.00;5.50;;;5.00;99.90;;;;;;7378779;19;20728;-66
2022/04/05 03:38:45;;;;;;;5.65;5.15;;;5.00;99.90;;;;;;7378427;19;20909;-66
2022/04/05 03:41:14;;;;;;;5.72;5.22;;;5.00;99.90;;;;;;7333006;19;20952;-66
2022/04/05 03:43:42;;;;;;;5.47;5.07;;;5.00;99.90;;;;;;7375125;19;20360;-67
2022/04/05 03:46:09;;;;;;;5.22;4.82;;;5.00;99.90;;;;;;7377274;19;20320;-67
2022/04/05 03:48:35;;;;;;;5.45;4.95;;;5.00;99.90;;;;;;7375040;19;20349;-67
2022/04/05 03:51:09;;;;;;;5.10;4.60;;;5.10;99.90;;;;;;7374706;19;20333;-68
2022/04/05 03:53:36;;;;;;;5.10;4.65;;;5.10;99.90;;;;;;7376184;19;20321;-67
2022/04/05 03:56:05;;;;;;;5.90;5.40;;;5.10;99.90;;;;;;7383646;19;20301;-68
2022/04/05 03:58:31;;;;;;;5.65;5.05;;;5.10;99.90;;;;;;7385576;19;20312;-68
2022/04/05 04:00:57;;;;;;;5.80;5.20;;;5.10;99.90;;;;;;7372423;19;21228;-68
2022/04/05 04:03:28;;;;;;;4.93;4.53;;;5.00;99.90;;;;;;7381151;19;20305;-67
2022/04/05 04:05:55;;;;;;;4.53;4.13;;;5.00;99.90;;;;;;7381076;19;20312;-68
2022/04/05 04:08:22;;;;;;;4.33;3.93;;;5.00;99.90;;;;;;7382578;19;20326;-67
2022/04/05 04:10:48;;;;;;;2.33;2.20;;;5.00;99.90;;;;;;7374914;19;20412;-67
2022/04/05 04:13:16;;;;;;;2.40;2.10;;;4.90;99.90;;;;;;7380876;19;20349;-68
2022/04/05 04:15:46;;;;;;;2.10;2.00;;;4.80;99.90;;;;;;7376068;19;20352;-67
2022/04/05 04:18:11;;;;;;;1.65;1.55;;;4.70;99.90;;;;;;7381411;19;20337;-67
2022/04/05 04:20:39;;;;;;;1.45;1.35;;;4.60;99.90;;;;;;7377451;19;20301;-68
2022/04/05 04:23:06;;;;;;;1.30;1.20;;;4.50;99.90;;;;;;7381630;19;20337;-67
2022/04/05 04:25:32;;;;;;;1.20;1.10;;;4.30;99.90;;;;;;7383897;19;20959;-67
2022/04/05 04:27:58;;;;;;;0.82;0.82;;;4.30;99.90;;;;;;7383431;19;20333;-68
2022/04/05 04:30:26;;;;;;;1.27;1.05;;;4.10;99.90;;;;;;7375650;19;20361;-68
2022/04/05 04:32:53;;;;;;;0.90;0.90;;;4.10;99.90;;;;;;7380885;19;21003;-67
2022/04/05 04:35:20;;;;;;;1.02;0.80;;;4.10;99.90;;;;;;7377482;19;21865;-67
2022/04/05 04:37:45;;;;;;;1.00;1.00;;;4.00;99.90;;;;;;7385073;19;20423;-67
2022/04/05 04:40:12;;;;;;;1.30;1.00;;;4.00;99.90;;;;;;7379939;19;20352;-67
2022/04/05 04:42:37;;;;;;;1.10;1.00;;;4.00;99.90;;;;;;7374876;19;20341;-66
2022/04/05 04:45:03;;;;;;;2.50;1.00;;;3.90;99.90;;;;;;7378276;19;20313;-67
2022/04/05 04:47:29;;;;;;;1.02;1.00;;;3.90;99.90;;;;;;7383148;19;20351;-67
2022/04/05 04:49:55;;;;;;;1.17;1.10;;;3.90;99.90;;;;;;7378376;19;20337;-67
2022/04/05 04:52:20;;;;;;;1.05;1.05;;;3.90;99.90;;;;;;7380503;19;20333;-66
2022/04/05 04:54:46;;;;;;;1.40;1.20;;;3.90;99.90;;;;;;7381494;19;20329;-66
2022/04/05 04:57:11;;;;;;;1.20;1.10;;;3.90;99.90;;;;;;7383636;19;20324;-67
2022/04/05 04:59:38;;;;;;;1.60;1.00;;;3.90;99.90;;;;;;7383047;19;20317;-67
2022/04/05 05:02:03;;;;;;;1.10;1.00;;;3.90;99.90;;;;;;7379311;19;20886;-67
2022/04/05 05:04:30;;;;;;;0.80;0.80;;;3.90;99.90;;;;;;7380455;19;20333;-67
2022/04/05 05:06:56;;;;;;;1.05;0.90;;;3.90;99.90;;;;;;7379624;19;20395;-66
2022/04/05 05:09:21;;;;;;;1.00;0.90;;;4.00;99.90;;;;;;7377871;19;20464;-67
2022/04/05 05:11:47;;;;;;;1.60;1.03;;;3.90;99.90;;;;;;7380763;19;20360;-66
2022/04/05 05:14:13;;;;;;;0.90;0.90;;;4.00;99.90;;;;;;7384786;19;20337;-67
2022/04/05 05:16:38;;;;;;;1.00;1.00;;;3.90;99.90;;;;;;7360627;19;20320;-66
2022/04/05 05:19:05;;;;;;;2.13;1.00;;;4.00;99.90;;;;;;7380881;19;20353;-66
2022/04/05 05:21:31;;;;;;;0.98;0.98;;;3.90;99.90;;;;;;7371769;19;20356;-66
2022/04/05 05:23:56;;;;;;;1.05;0.90;;;4.00;99.90;;;;;;7379980;19;20352;-67
2022/04/05 05:26:22;;;;;;;1.52;1.10;;;4.00;99.90;;;;;;7381457;19;20854;-66
2022/04/05 05:28:48;;;;;;;1.00;1.00;;;4.00;99.90;;;;;;7382220;19;20762;-67
2022/04/05 05:31:14;;;;;;;1.27;0.90;;;4.00;99.90;;;;;;7372708;19;20340;-67
2022/04/05 05:33:39;;;;;;;1.35;1.15;;;4.00;99.90;;;;;;7379537;19;20344;-66
2022/04/05 05:36:05;;;;;;;2.30;1.13;;;4.00;99.90;;;;;;7380311;19;20352;-66
2022/04/05 05:38:31;;;;;;;1.27;0.90;;;4.00;99.90;;;;;;7383209;19;20324;-66
2022/04/05 05:40:56;;;;;;;3.50;1.35;;;4.00;99.90;;;;;;7377224;19;20988;-66
2022/04/05 05:43:23;;;;;;;1.10;0.80;;;4.10;99.90;;;;;;7379106;19;20391;-66
2022/04/05 05:45:48;;;;;;;1.00;1.00;;;4.00;99.90;;;;;;7375913;19;20325;-66
2022/04/05 05:48:14;;;;;;;1.97;1.10;;;4.10;99.90;;;;;;7376430;19;20323;-66
2022/04/05 05:50:40;;;;;;;1.30;1.13;;;4.00;99.90;;;;;;7373430;19;20309;-66
2022/04/05 05:53:05;;;;;;;1.80;1.30;;;4.00;99.90;;;;;;7379479;19;20321;-66
2022/04/05 05:55:31;;;;;;;1.17;0.95;;;4.10;99.90;;;;;;7377122;19;20349;-65
2022/04/05 05:57:57;;;;;;;1.03;1.00;;;4.10;99.90;;;;;;7376612;19;20343;-67
2022/04/05 06:00:23;;;;;;;0.93;0.93;;;4.10;99.90;;;;;;7376556;19;20320;-66
2022/04/05 06:02:54;;;;;;;0.90;0.90;;;4.10;99.90;;;;;;7379313;19;21007;-66
2022/04/05 06:05:20;;;;;;;1.02;0.90;;;4.10;99.90;;;;;;7367174;19;20336;-66
2022/04/05 06:07:45;;;;;;;1.48;1.00;;;4.10;99.90;;;;;;7381820;19;20819;-65
2022/04/05 06:10:12;;;;;;;1.30;1.10;;;4.10;99.90;;;;;;7380783;19;21064;-66
2022/04/05 06:12:38;;;;;;;1.33;1.10;;;4.10;99.90;;;;;;7381282;19;21213;-66
2022/04/05 06:15:08;;;;;;;2.70;1.20;;;4.10;99.90;;;;;;7381473;19;20332;-66
2022/04/05 06:17:34;;;;;;;1.30;1.10;;;4.00;99.90;;;;;;7379999;19;20692;-66
2022/04/05 06:20:00;;;;;;;1.88;1.00;;;4.10;99.90;;;;;;7380382;19;21243;-66
2022/04/05 06:22:25;;;;;;;1.27;1.13;;;4.10;99.90;;;;;;7379402;19;20328;-66
2022/04/05 06:24:51;;;;;;;1.30;0.90;;;4.20;99.90;;;;;;7378305;19;20361;-66
2022/04/05 06:27:17;;;;;;;1.30;1.08;;;4.10;99.90;;;;;;7380498;19;20321;-66
2022/04/05 06:29:42;;;;;;;3.37;1.10;;;4.10;99.90;;;;;;7379182;19;20328;-66
2022/04/05 06:32:08;;;;;;;2.72;1.10;;;4.20;99.90;;;;;;7379482;19;20335;-66
2022/04/05 06:34:34;;;;;;;2.37;1.07;;;4.20;99.90;;;;;;7380270;19;20320;-66
2022/04/05 06:36:59;;;;;;;1.37;1.27;;;4.20;99.90;;;;;;7379995;19;20379;-66
2022/04/05 06:39:25;;;;;;;1.55;1.10;;;4.20;99.90;;;;;;7377591;19;20333;-65
2022/04/05 06:41:52;;;;;;;1.10;1.10;;;4.30;99.90;;;;;;7378039;19;20349;-66
2022/04/05 06:44:17;;;;;;;1.45;1.10;;;4.30;99.90;;;;;;7376960;19;20356;-66
2022/04/05 06:46:43;;;;;;;3.00;1.30;;;4.30;99.90;;;;;;7382436;19;20333;-66
2022/04/05 06:49:09;;;;;;;0.85;0.85;;;4.40;99.90;;;;;;7377350;19;20684;-66
2022/04/05 06:51:34;;;;;;;2.25;1.13;;;4.40;99.90;;;;;;7375773;19;20345;-66
2022/04/05 06:54:00;;;;;;;1.30;1.00;;;4.40;99.90;;;;;;7381553;19;20320;-66
2022/04/05 06:56:26;;;;;;;1.10;1.00;;;4.50;99.90;;;;;;7381747;19;20339;-67
2022/04/05 06:58:52;;;;;;;3.35;1.27;;;4.50;99.90;;;;;;7379917;19;20334;-65
2022/04/05 07:01:18;;;;;;;1.40;1.08;;;4.60;99.90;;;;;;7377672;19;20297;-66
2022/04/05 07:03:44;;;;;;;1.67;1.17;;;4.60;99.90;;;;;;7377987;19;20340;-66
2022/04/05 07:06:09;;;;;;;1.10;1.00;;;4.60;99.90;;;;;;7379015;19;20341;-65
2022/04/05 07:08:36;;;;;;;1.40;1.17;;;4.60;99.90;;;;;;7381212;19;20305;-65
2022/04/05 07:11:02;;;;;;;2.72;1.35;;;4.70;99.90;;;;;;7377378;19;20341;-65
2022/04/05 07:13:30;;;;;;;2.08;1.38;;;4.70;99.90;;;;;;7377493;19;20360;-65
2022/04/05 07:15:56;;;;;;;1.02;1.00;;;4.70;99.90;;;;;;7381187;19;20316;-66
2022/04/05 07:18:22;;;;;;;2.00;1.38;;;4.80;99.90;;;;;;7378989;19;20323;-66
2022/04/05 07:20:47;;;;;;;1.65;1.25;;;4.80;99.90;;;;;;7374020;19;20419;-65
2022/04/05 07:23:15;;;;;;;2.50;1.53;;;5.00;99.90;;;;;;7377382;19;20343;-66
2022/04/05 07:25:41;;;;;;;1.55;1.20;;;5.20;99.90;;;;;;7376081;19;20350;-67
2022/04/05 07:28:06;;;;;;;1.40;1.30;;;5.20;99.90;;;;;;7379991;19;20301;-66
2022/04/05 07:30:32;;;;;;;2.00;1.50;;;5.30;99.90;;;;;;7382667;19;20429;-66
2022/04/05 07:32:57;;;;;;;1.27;1.13;;;5.30;99.90;;;;;;7385460;19;20312;-66
2022/04/05 07:35:23;;;;;;;4.00;1.60;;;5.30;99.90;;;;;;7382572;19;20362;-66
2022/04/05 07:37:49;;;;;;;2.90;1.43;;;5.30;99.90;;;;;;7387588;19;20364;-66
2022/04/05 07:40:15;;;;;;;2.67;1.55;;;5.30;99.90;;;;;;7384500;19;20333;-66
2022/04/05 07:42:42;;;;;;;3.23;1.63;;;5.40;99.90;;;;;;7383751;19;20309;-66
2022/04/05 07:45:08;;;;;;;4.78;1.73;;;5.50;99.90;;;;;;7383431;19;20297;-66
2022/04/05 07:47:34;;;;;;;2.63;1.70;;;5.60;99.90;;;;;;7385531;19;20312;-66
2022/04/05 07:50:00;;;;;;;1.80;1.40;;;5.50;99.90;;;;;;7366892;19;20344;-66
2022/04/05 07:52:26;;;;;;;1.80;1.38;;;5.50;99.90;;;;;;7383811;19;20703;-66
2022/04/05 07:54:52;;;;;;;2.33;1.42;;;5.60;99.90;;;;;;7387939;19;20371;-66
2022/04/05 07:57:17;;;;;;;3.30;1.47;;;5.60;99.90;;;;;;7387582;19;20325;-66
2022/04/05 07:59:43;;;;;;;3.67;1.50;;;5.60;99.90;;;;;;7383877;19;20320;-66
2022/04/05 08:02:09;;;;;;;2.25;1.70;;;5.60;99.90;;;;;;7385524;19;20891;-66
2022/04/05 08:04:34;;;;;;;1.73;1.57;;;5.50;99.90;;;;;;7382132;19;20357;-66
2022/04/05 08:07:01;;;;;;;2.60;1.50;;;5.60;99.90;;;;;;7384248;19;20743;-66
2022/04/05 08:09:27;;;;;;;2.10;1.50;;;5.60;99.90;;;;;;7382090;19;20337;-66
2022/04/05 08:11:52;;;;;;;1.70;1.25;;;5.70;99.90;;;;;;7387587;19;20341;-66
2022/04/05 08:14:18;;;;;;;3.22;1.50;;;5.80;99.90;;;;;;7386579;19;20341;-66
2022/04/05 08:16:44;;;;;;;3.30;1.67;;;5.90;99.90;;;;;;7385940;19;20341;-66
2022/04/05 08:19:09;;;;;;;1.50;1.40;;;6.10;99.90;;;;;;7383809;19;20368;-66
2022/04/05 08:21:36;;;;;;;2.47;1.63;;;6.20;99.90;;;;;;7385162;19;20652;-66
2022/04/05 08:24:01;;;;;;;2.67;1.73;;;6.30;99.90;;;;;;7380725;19;20313;-66
2022/04/05 08:26:27;;;;;;;1.57;1.40;;;6.30;99.90;;;;;;7384555;19;20356;-66
2022/04/05 08:28:56;;;;;;;1.70;1.35;;;6.40;99.90;;;;;;7383010;19;20903;-66
2022/04/05 08:31:25;;;;;;;2.77;1.70;;;6.50;99.90;;;;;;7383073;19;20325;-66
2022/04/05 08:33:51;;;;;;;2.20;1.80;;;6.60;99.90;;;;;;7384011;19;20319;-66
2022/04/05 08:36:16;;;;;;;3.50;1.60;;;6.80;99.90;;;;;;7382952;19;20341;-66
2022/04/05 08:38:42;;;;;;;4.55;1.58;;;7.00;99.90;;;;;;7384946;19;20914;-66
2022/04/05 08:41:08;;;;;;;3.13;1.50;;;7.00;99.90;;;;;;7381213;19;20304;-66
2022/04/05 08:43:34;;;;;;;1.70;1.02;;;7.10;99.90;;;;;;7383485;19;20309;-67
2022/04/05 08:46:00;;;;;;;3.25;1.42;;;7.10;99.90;;;;;;7361382;19;20333;-67
2022/04/05 08:48:28;;;;;;;1.60;1.33;;;7.00;99.90;;;;;;7372814;19;20332;-67
2022/04/05 08:50:54;;;;;;;3.20;1.40;;;7.00;99.90;;;;;;7379317;19;20347;-67
2022/04/05 08:53:20;;;;;;;1.35;1.20;;;7.00;99.90;;;;;;7385380;19;20331;-66
2022/04/05 08:55:46;;;;;;;2.50;1.57;;;6.90;99.90;;;;;;7383174;19;20320;-66
2022/04/05 08:58:13;;;;;;;1.45;1.35;;;7.10;99.90;;;;;;7382220;19;20403;-67
2022/04/05 09:00:39;;;;;;;4.22;1.60;;;7.20;99.90;;;;;;7381892;19;20328;-67
2022/04/05 09:03:05;;;;;;;3.77;1.40;;;7.40;99.90;;;;;;7383116;19;20376;-66
2022/04/05 09:05:33;;;;;;;1.20;1.05;;;7.40;99.90;;;;;;7384785;19;20321;-67
2022/04/05 09:08:18;;;;;;;3.75;1.30;;;7.40;99.90;;;;;;7386084;19;20304;-67
2022/04/05 09:10:45;;;;;;;2.45;1.40;;;7.40;99.90;;;;;;7279791;19;2004355;-67
2022/04/05 09:13:11;;;;;;;2.85;1.27;;;7.30;99.90;;;;;;7384062;19;20375;-67
2022/04/05 09:15:37;;;;;;;1.17;1.08;;;7.30;99.90;;;;;;7374355;19;20321;-67
2022/04/05 09:18:03;;;;;;;1.20;1.10;;;6.90;99.90;;;;;;7384079;19;20317;-70
2022/04/05 09:20:28;;;;;;;2.13;1.00;;;6.50;99.90;;;;;;7379219;19;20358;-66
2022/04/05 09:22:55;;;;;;;0.93;0.82;;;6.60;99.90;;;;;;7382515;19;20337;-66
2022/04/05 09:25:23;;;;;;;1.10;1.00;;;6.70;99.90;;;;;;7382898;19;20417;-66
2022/04/05 09:27:58;;;;;;;1.13;0.90;;;6.80;99.90;;;;;;7385483;19;20340;-66
2022/04/05 09:30:24;;;;;;;1.05;0.82;;;7.00;99.90;;;;;;7376224;19;20336;-66
2022/04/05 09:32:51;;;;;;;1.00;0.87;;;7.10;99.90;;;;;;7382097;19;20998;-68
2022/04/05 09:35:22;;;;;;;1.70;1.27;;;7.20;99.90;;;;;;7383463;19;20388;-68
2022/04/05 09:37:48;;;;;;;1.10;1.10;;;7.30;99.90;;;;;;7383125;19;20341;-67
2022/04/05 09:40:34;;;;;;;1.33;1.00;;;7.40;99.90;;;;;;7379613;19;20361;-67
2022/04/05 09:43:09;;;;;;;1.10;1.08;;;7.30;99.90;;;;;;7383485;19;20371;-67
2022/04/05 09:45:49;;;;;;;1.83;1.10;;;7.40;99.90;;;;;;7381390;19;20826;-67
2022/04/05 09:48:18;;;;;;;3.97;1.23;;;7.50;99.90;;;;;;7383174;19;20321;-68
2022/04/05 09:50:59;;;;;;;1.10;1.00;;;7.70;99.90;;;;;;7376559;19;20312;-68
2022/04/05 09:53:30;;;;;;;0.80;0.80;;;7.80;99.90;;;;;;7382536;19;20352;-67
2022/04/05 09:56:15;;;;;;;1.40;1.13;;;7.80;99.90;;;;;;7383544;19;20873;-68
2022/04/05 09:58:50;;;;;;;1.75;1.05;;;7.90;99.90;;;;;;7380564;19;20853;-68
2022/04/05 10:01:17;;;;;;;1.38;0.82;;;8.00;99.90;;;;;;7376376;19;20355;-68
2022/04/05 10:03:55;;;;;;;1.10;0.90;;;8.00;99.90;;;;;;7382156;19;20427;-69
2022/04/05 10:06:21;;;;;;;1.10;1.00;;;8.10;99.90;;;;;;7381444;19;20392;-68
2022/04/05 10:08:47;;;;;;;0.80;0.80;;;8.00;99.90;;;;;;7384045;19;20972;-68
2022/04/05 10:11:12;;;;;;;1.50;1.00;;;8.10;99.90;;;;;;7377844;19;20407;-67
2022/04/05 10:13:38;;;;;;;1.90;1.00;;;8.30;99.90;;;;;;7381441;19;20321;-67
2022/04/05 10:16:04;;;;;;;2.47;0.90;;;8.60;99.90;;;;;;7376464;19;20877;-68
2022/04/05 10:18:33;;;;;;;1.00;1.00;;;8.70;99.90;;;;;;7381615;19;20308;-68
2022/04/05 10:20:59;;;;;;;2.90;1.05;;;8.90;99.90;;;;;;7377925;19;20325;-68
2022/04/05 10:23:24;;;;;;;4.80;1.15;;;8.90;99.90;;;;;;7380580;19;20317;-68
2022/04/05 10:25:51;;;;;;;2.10;1.20;;;9.10;99.90;;;;;;7378603;19;20857;-68
2022/04/05 10:28:19;;;;;;;1.02;0.93;;;9.20;99.90;;;;;;7382172;19;20321;-68
2022/04/05 10:30:50;;;;;;;2.80;1.15;;;9.10;99.90;;;;;;7374196;19;20333;-68
2022/04/05 10:33:38;;;;;;;1.40;1.20;;;9.60;99.90;;;;;;7379530;19;20323;-68
2022/04/05 10:36:04;;;;;;;1.15;1.02;;;9.50;99.90;;;;;;7381676;19;20333;-69
2022/04/05 10:38:30;;;;;;;1.20;1.10;;;9.90;99.90;;;;;;7380418;19;20317;-69
2022/04/05 10:41:19;;;;;;;1.95;1.10;;;10.20;99.90;;;;;;7377990;19;20778;-69
2022/04/05 10:43:45;;;;;;;0.95;0.85;;;10.30;99.90;;;;;;7278245;19;2004447;-69
2022/04/05 10:46:11;;;;;;;1.20;1.00;;;10.20;99.90;;;;;;7380954;19;20304;-68
2022/04/05 10:48:37;;;;;;;1.13;1.03;;;9.80;99.90;;;;;;7379957;19;20664;-69
2022/04/05 10:51:03;;;;;;;1.55;1.00;;;9.70;99.90;;;;;;7373418;19;20337;-68
2022/04/05 10:53:41;;;;;;;3.30;1.10;;;10.10;99.90;;;;;;7379520;19;20307;-69
2022/04/05 10:56:07;;;;;;;1.95;1.20;;;10.10;99.90;;;;;;7279131;19;2004544;-68
2022/04/05 10:58:34;;;;;;;1.10;1.00;;;9.80;99.90;;;;;;7381610;19;20332;-67
2022/04/05 11:01:19;;;;;;;1.05;1.00;;;10.20;99.90;;;;;;7350233;19;22461;-68
2022/04/05 11:04:09;;;;;;;2.40;1.10;;;10.70;99.90;;;;;;7377596;19;20973;-67
2022/04/05 11:07:03;;;;;;;1.88;0.90;;;10.80;99.90;;;;;;7384189;19;20305;-68
2022/04/05 11:09:41;;;;;;;1.23;0.95;;;10.70;99.90;;;;;;7280807;19;2004384;-69
2022/04/05 11:12:42;;;;;;;1.60;1.20;;;10.20;99.90;;;;;;7380822;19;21231;-68
2022/04/05 11:15:10;;;;;;;1.20;1.00;;;10.30;99.90;;;;;;7277295;19;2004571;-68
2022/04/05 11:17:36;;;;;;;1.40;0.90;;;10.40;99.90;;;;;;7386169;19;20383;-69
2022/04/05 11:20:02;;;;;;;0.80;0.80;;;10.40;99.90;;;;;;7378502;19;20349;-68
2022/04/05 11:22:35;;;;;;;1.05;0.95;;;10.00;99.90;;;;;;7382985;19;20321;-69
2022/04/05 11:25:06;;;;;;;0.87;0.83;;;10.10;99.90;;;;;;7384952;19;20967;-69
2022/04/05 11:27:47;;;;;;;1.30;1.00;;;9.90;99.90;;;;;;7383457;19;20331;-69
2022/04/05 11:30:28;;;;;;;3.03;1.13;;;10.00;99.90;;;;;;7274537;19;2004475;-69
2022/04/05 11:33:15;;;;;;;1.45;1.02;;;9.80;99.90;;;;;;7282798;19;2004198;-69
2022/04/05 11:35:43;;;;;;;1.23;1.00;;;9.70;99.90;;;;;;7276678;19;2004535;-69
2022/04/05 11:38:28;;;;;;;1.30;0.80;;;9.50;99.90;;;;;;7382155;19;20418;-68
2022/04/05 11:41:04;;;;;;;0.88;0.88;;;9.40;99.90;;;;;;7276491;19;2004410;-70
2022/04/05 11:43:38;;;;;;;0.90;0.87;;;9.20;99.90;;;;;;7383084;19;20761;-68
2022/04/05 11:46:12;;;;;;;1.10;1.00;;;9.40;99.90;;;;;;7382572;19;20335;-69
2022/04/05 11:48:48;;;;;;;1.10;0.90;;;9.50;99.90;;;;;;7282297;19;2004521;-70
2022/04/05 11:51:15;;;;;;;1.83;1.48;;;9.30;99.90;;;;;;7278230;19;2004423;-69
2022/04/05 11:53:42;;;;;;;2.70;1.50;;;9.40;99.90;;;;;;7382465;19;20320;-69
2022/04/05 11:56:17;;;;;;;2.00;1.20;;;9.30;99.90;;;;;;7382637;19;20385;-69
2022/04/05 11:58:50;;;;;;;1.50;1.10;;;9.20;99.90;;;;;;7383629;19;20644;-69
2022/04/05 12:01:36;;;;;;;2.15;1.10;;;9.20;99.90;;;;;;7377644;19;20352;-68
2022/04/05 12:04:22;;;;;;;3.92;1.92;;;9.40;99.90;;;;;;7255190;19;2004832;-69
2022/04/05 12:07:03;;;;;;;2.08;1.52;;;9.60;99.90;;;;;;7275134;19;20349;-68
2022/04/05 12:09:36;;;;;;;4.70;1.83;;;9.50;99.90;;;;;;7335710;19;20371;-69
2022/04/05 12:12:03;;;;;;;1.30;1.20;;;9.70;99.90;;;;;;7377053;19;20352;-68
2022/04/05 12:14:29;;;;;;;2.10;1.50;;;9.80;99.90;;;;;;7376278;19;20344;-69
2022/04/05 12:17:00;;;;;;;1.92;1.23;;;9.90;99.90;;;;;;7375830;19;20327;-69
2022/04/05 12:19:28;;;;;;;1.85;1.10;;;9.90;99.90;;;;;;7376108;19;20352;-68
2022/04/05 12:22:01;;;;;;;1.38;0.90;;;9.70;99.90;;;;;;7376855;19;20440;-68
2022/04/05 12:24:27;;;;;;;1.83;1.43;;;9.80;99.90;;;;;;7380368;19;20337;-69
2022/04/05 12:26:55;;;;;;;1.47;1.23;;;9.70;99.90;;;;;;7379445;19;20355;-69
2022/04/05 12:29:21;;;;;;;3.50;2.08;;;9.50;99.90;;;;;;7375236;19;20384;-68
2022/04/05 12:31:47;;;;;;;3.40;2.07;;;9.40;99.90;;;;;;7375012;19;20710;-69
2022/04/05 12:34:13;;;;;;;2.10;1.80;;;9.40;99.90;;;;;;7383237;19;20307;-69
2022/04/05 12:36:44;;;;;;;1.63;1.53;;;9.60;99.90;;;;;;7380478;19;20351;-69
2022/04/05 12:39:31;;;;;;;2.70;1.60;;;9.80;99.90;;;;;;7378449;19;20320;-69
2022/04/05 12:42:15;;;;;;;1.20;1.10;;;9.80;99.90;;;;;;7378153;19;20408;-70
2022/04/05 12:44:43;;;;;;;2.47;1.40;;;9.60;99.90;;;;;;7381532;19;20324;-69
2022/04/05 12:47:10;;;;;;;1.60;1.33;;;9.50;99.90;;;;;;7381765;19;20900;-68
2022/04/05 12:49:46;;;;;;;2.03;1.33;;;9.40;99.90;;;;;;7379779;19;20341;-69
2022/04/05 12:52:14;;;;;;;1.25;1.15;;;9.50;99.90;;;;;;7278088;19;2004505;-69
2022/04/05 12:55:05;;;;;;;1.25;1.10;;;9.60;99.90;;;;;;7381501;19;20357;-69
2022/04/05 12:57:35;;;;;;;4.43;1.42;;;9.70;99.90;;;;;;7277795;19;2004538;-68
2022/04/05 13:00:15;;;;;;;1.35;1.20;;;9.60;99.90;;;;;;7377816;19;20331;-68